Time;durP1;ratioP1;P1;durP2;ratioP2;P2;SDS_P1;SDS_P2;PMS_P1;PMS_P2;Temp;Humidity;BMP_temperature;BMP_pressure;BME280_temperature;BME280_humidity;BME280_pressure;Samples;Min_cycle;Max_cycle;Signal;HPM_P1;HPM_P2
2022/02/10 00:23:00;;;;;;;1.30;0.30;;;14.30;68.00;;;;;;5043969;28;20048;-77
2022/02/10 00:34:28;;;;;;;1.40;0.50;;;14.10;68.10;;;;;;5015844;28;20049;-78
2022/02/10 00:36:14;;;;;;;1.02;0.40;;;14.10;68.20;;;;;;5043392;28;20064;-78
2022/02/10 00:38:47;;;;;;;1.67;0.60;;;14.10;68.20;;;;;;5039842;28;20048;-77
2022/02/10 00:41:12;;;;;;;1.20;0.38;;;14.10;68.20;;;;;;5039564;28;20597;-77
2022/02/10 00:43:38;;;;;;;1.23;0.45;;;14.10;68.10;;;;;;5075099;28;20119;-78
2022/02/10 00:46:05;;;;;;;1.40;0.35;;;14.00;68.20;;;;;;5042850;28;20056;-77
2022/02/10 00:48:31;;;;;;;0.50;0.20;;;14.00;68.10;;;;;;5059009;28;20055;-77
2022/02/10 00:50:58;;;;;;;1.08;0.47;;;14.00;68.20;;;;;;5059725;28;20049;-80
2022/02/10 00:53:29;;;;;;;0.93;0.35;;;14.00;68.30;;;;;;5060942;28;20060;-79
2022/02/10 00:55:55;;;;;;;0.95;0.40;;;14.00;68.30;;;;;;5039249;28;20132;-79
2022/02/10 00:58:31;;;;;;;1.30;0.40;;;14.00;68.30;;;;;;5038999;28;20063;-77
2022/02/10 01:12:22;;;;;;;1.45;0.52;;;13.90;68.50;;;;;;5073771;28;20057;-77
2022/02/10 01:30:31;;;;;;;1.98;0.77;;;13.80;68.80;;;;;;5079057;28;20052;-80
2022/02/10 01:33:01;;;;;;;1.13;0.73;;;13.80;68.70;;;;;;5084727;28;20127;-78
2022/02/10 01:35:28;;;;;;;2.15;0.68;;;13.80;68.70;;;;;;5059112;28;20090;-76
2022/02/10 01:37:54;;;;;;;2.00;0.73;;;13.80;68.60;;;;;;5057622;28;20052;-77
2022/02/10 01:40:29;;;;;;;1.33;0.88;;;13.80;68.60;;;;;;5075724;28;20102;-76
2022/02/10 02:04:42;;;;;;;1.95;0.70;;;13.70;68.60;;;;;;5078009;28;20064;-81
2022/02/10 02:07:09;;;;;;;1.30;0.70;;;13.80;68.70;;;;;;5078108;28;20087;-80
2022/02/10 02:09:35;;;;;;;1.02;0.65;;;13.80;68.70;;;;;;5077721;28;20052;-80
2022/02/10 02:12:06;;;;;;;2.42;0.60;;;13.80;68.70;;;;;;5057024;28;20041;-82
2022/02/10 02:14:33;;;;;;;1.23;0.77;;;13.80;68.50;;;;;;5057457;28;20049;-81
2022/02/10 02:17:03;;;;;;;0.80;0.60;;;13.70;68.60;;;;;;5043930;28;20092;-82
2022/02/10 02:19:29;;;;;;;0.80;0.40;;;13.70;68.60;;;;;;5038629;28;20044;-81
2022/02/10 02:22:03;;;;;;;2.33;0.70;;;13.70;69.10;;;;;;5021074;28;20052;-80
2022/02/10 02:24:28;;;;;;;1.25;0.85;;;13.70;68.80;;;;;;5037145;28;20037;-79
2022/02/10 02:27:04;;;;;;;1.15;0.70;;;13.70;68.80;;;;;;5037208;28;20197;-79
2022/02/10 02:29:39;;;;;;;1.92;0.68;;;13.70;68.80;;;;;;5041411;28;20179;-80
2022/02/10 02:32:14;;;;;;;0.93;0.70;;;13.70;68.80;;;;;;5057448;28;20044;-80
2022/02/10 02:35:38;;;;;;;1.40;0.50;;;13.70;68.80;;;;;;5057447;28;20052;-80
2022/02/10 02:37:46;;;;;;;2.05;0.50;;;13.70;68.80;;;;;;5049055;28;20479;-80
2022/02/10 03:07:53;;;;;;;;;;;13.50;69.10;;;;;;5041449;28;20060;-79
2022/02/10 03:10:56;;;;;;;0.93;0.65;;;13.50;68.40;;;;;;5057890;28;20008;-80
2022/02/10 03:13:31;;;;;;;2.70;0.65;;;13.50;69.10;;;;;;5040798;28;20114;-79
2022/02/10 03:21:18;;;;;;;2.15;1.10;;;13.50;69.00;;;;;;5073801;28;20060;-81
2022/02/10 04:15:15;;;;;;;;;;;13.40;68.80;;;;;;5097395;28;20060;-82
2022/02/10 04:23:02;;;;;;;2.60;1.63;;;13.50;68.80;;;;;;5070656;28;20059;-81
2022/02/10 04:28:19;;;;;;;2.42;1.52;;;13.40;68.90;;;;;;5059885;28;20060;-80
2022/02/10 04:32:05;;;;;;;3.55;1.77;;;13.40;68.80;;;;;;5059740;28;20121;-80
2022/02/10 05:01:06;;;;;;;3.67;2.92;;;13.30;68.90;;;;;;5063572;28;20044;-80
2022/02/10 05:34:22;;;;;;;7.60;3.17;;;14.80;65.60;;;;;;5070788;28;20325;-77
2022/02/10 05:36:48;;;;;;;7.68;2.70;;;14.80;63.90;;;;;;5075691;28;20430;-79
2022/02/10 05:39:19;;;;;;;8.30;2.67;;;14.90;66.10;;;;;;5075827;28;20076;-73
2022/02/10 05:55:13;;;;;;;7.45;1.65;;;15.50;66.60;;;;;;5052018;28;20465;-76
2022/02/10 06:38:07;;;;;;;6.93;2.03;;;15.60;67.40;;;;;;5087493;28;20490;-77
2022/02/10 06:49:33;;;;;;;9.93;2.35;;;16.70;66.20;;;;;;5083761;28;20123;-80
2022/02/10 06:52:25;;;;;;;17.95;2.13;;;16.70;66.30;;;;;;5089245;28;20063;-78
2022/02/10 06:55:13;;;;;;;18.42;2.38;;;16.80;66.40;;;;;;5077631;28;20119;-76
2022/02/10 07:13:22;;;;;;;13.52;1.55;;;16.70;66.30;;;;;;5077486;28;20094;-76
2022/02/10 08:56:33;;;;;;;9.07;1.60;;;16.90;61.80;;;;;;5095731;28;20044;-77
2022/02/10 16:12:12;;;;;;;;;;;14.40;58.10;;;;;;5048798;28;20049;-76
2022/02/10 16:17:07;;;;;;;9.60;1.83;;;14.70;59.00;;;;;;5038423;28;20063;-74
2022/02/10 16:19:37;;;;;;;10.50;1.52;;;14.60;59.40;;;;;;5048289;28;20082;-75
2022/02/10 16:22:22;;;;;;;19.25;2.28;;;14.70;59.60;;;;;;5047292;28;20049;-73
2022/02/10 16:25:02;;;;;;;;;;;14.50;61.30;;;;;;5048322;28;20452;-76
2022/02/10 16:27:30;;;;;;;16.58;2.47;;;14.70;61.80;;;;;;5047233;28;19923;-70
2022/02/10 16:30:08;;;;;;;13.15;2.25;;;14.70;62.60;;;;;;5045379;28;20052;-77
2022/02/10 16:32:35;;;;;;;12.57;2.03;;;14.80;62.60;;;;;;5048279;28;20041;-76
2022/02/10 16:35:03;;;;;;;16.83;2.67;;;14.80;62.40;;;;;;5030656;28;20436;-78
2022/02/10 16:37:28;;;;;;;14.63;2.47;;;14.90;62.90;;;;;;5047472;28;20076;-75
2022/02/10 16:39:54;;;;;;;10.30;2.20;;;14.90;63.10;;;;;;5047881;28;20056;-77
2022/02/10 16:42:20;;;;;;;15.70;2.28;;;14.90;63.10;;;;;;5030407;28;20113;-75
2022/02/10 16:44:51;;;;;;;15.77;2.17;;;15.00;62.70;;;;;;5014322;28;20045;-75
2022/02/10 16:47:17;;;;;;;15.02;2.25;;;15.10;62.40;;;;;;5048183;28;20049;-75
2022/02/10 16:49:49;;;;;;;18.58;3.03;;;15.30;62.40;;;;;;5047352;28;20464;-75
2022/02/10 16:52:21;;;;;;;17.35;2.65;;;15.50;62.40;;;;;;5030996;28;20429;-74
2022/02/10 16:54:49;;;;;;;14.82;2.53;;;15.60;62.50;;;;;;5034607;28;20100;-75
2022/02/10 16:57:34;;;;;;;17.25;2.28;;;15.80;62.50;;;;;;5034616;28;20116;-75
2022/02/10 17:00:20;;;;;;;20.17;2.45;;;15.80;63.10;;;;;;5034684;28;20057;-75
2022/02/10 17:05:30;;;;;;;10.75;2.25;;;15.90;62.80;;;;;;5034325;28;20412;-75
2022/02/10 17:19:11;;;;;;;12.18;1.98;;;16.00;63.50;;;;;;4973570;28;20157;-78
2022/02/10 17:53:52;;;;;;;17.02;2.53;;;16.70;62.80;;;;;;5025416;28;20107;-79
2022/02/10 17:56:19;;;;;;;16.00;2.42;;;16.70;62.80;;;;;;5014091;28;20042;-76
2022/02/10 17:58:45;;;;;;;14.70;2.30;;;16.70;62.80;;;;;;5007090;28;20046;-76
2022/02/10 18:01:11;;;;;;;15.30;2.45;;;16.60;62.80;;;;;;5009461;28;20045;-78
2022/02/10 18:03:38;;;;;;;13.85;2.40;;;16.60;63.50;;;;;;5008201;28;20120;-78
2022/02/10 18:06:19;;;;;;;15.65;2.08;;;16.50;63.00;;;;;;5012063;28;20049;-78
2022/02/10 18:16:24;;;;;;;11.95;2.15;;;16.20;63.10;;;;;;5013655;28;20081;-77
2022/02/10 18:18:55;;;;;;;12.98;1.67;;;16.20;63.00;;;;;;5013418;28;20076;-76
2022/02/10 18:26:19;;;;;;;7.60;1.38;;;16.10;62.70;;;;;;5012920;28;20046;-79
2022/02/10 19:09:09;;;;;;;7.85;1.60;;;15.50;62.00;;;;;;5013188;28;20372;-78
2022/02/10 19:11:38;;;;;;;5.95;1.02;;;15.50;62.10;;;;;;5012185;28;20053;-77
2022/02/10 19:14:06;;;;;;;7.05;1.35;;;15.50;62.30;;;;;;5012762;28;20045;-77
2022/02/10 19:16:32;;;;;;;8.68;1.20;;;15.50;62.40;;;;;;5013502;28;20081;-77
2022/02/10 19:18:58;;;;;;;7.97;1.70;;;15.50;62.50;;;;;;5012488;28;20465;-76
2022/02/10 19:21:26;;;;;;;8.02;1.45;;;15.50;62.30;;;;;;5011237;28;20040;-80
2022/02/10 19:23:52;;;;;;;13.05;1.55;;;15.50;62.20;;;;;;4997304;28;20474;-76
2022/02/10 19:26:18;;;;;;;8.00;1.50;;;15.50;62.30;;;;;;5001963;28;20034;-77
2022/02/10 19:28:43;;;;;;;9.50;1.17;;;15.50;62.30;;;;;;5009641;28;20046;-76
2022/02/10 19:31:11;;;;;;;9.75;1.55;;;15.50;62.30;;;;;;5001294;28;20053;-77
2022/02/10 19:33:37;;;;;;;9.45;1.40;;;15.50;62.30;;;;;;5007120;28;20130;-75
2022/02/10 19:36:04;;;;;;;6.72;1.45;;;15.50;62.30;;;;;;5008878;28;21481;-76
2022/02/10 19:38:31;;;;;;;8.68;1.60;;;15.50;62.30;;;;;;5002239;28;20043;-78
2022/02/10 19:40:57;;;;;;;6.93;1.30;;;15.40;62.30;;;;;;5000400;28;20061;-77
2022/02/10 19:43:25;;;;;;;5.07;1.42;;;15.40;62.30;;;;;;4998290;28;20050;-77
2022/02/10 19:45:51;;;;;;;9.18;1.83;;;15.40;62.30;;;;;;5006492;28;20050;-77
2022/02/10 19:48:17;;;;;;;10.63;1.75;;;15.40;62.40;;;;;;4996475;28;20049;-76
2022/02/10 19:50:43;;;;;;;9.27;1.40;;;15.40;62.30;;;;;;5003452;28;20050;-75
2022/02/10 19:53:12;;;;;;;5.55;1.60;;;15.40;62.40;;;;;;5008838;28;20056;-76
2022/02/10 19:55:41;;;;;;;5.68;1.27;;;15.40;62.30;;;;;;5008999;28;20060;-76
2022/02/10 19:58:10;;;;;;;7.35;1.55;;;15.40;62.40;;;;;;5027943;28;20050;-77
2022/02/10 20:00:44;;;;;;;5.18;1.13;;;15.40;62.40;;;;;;5028893;28;20088;-76
2022/02/10 20:03:16;;;;;;;10.05;1.48;;;15.40;62.40;;;;;;5025547;28;20038;-77
2022/02/10 20:05:48;;;;;;;6.53;1.55;;;15.30;62.40;;;;;;5027363;28;20141;-76
2022/02/10 20:08:17;;;;;;;8.10;1.75;;;15.30;62.40;;;;;;5012303;28;20047;-77
2022/02/10 20:10:43;;;;;;;5.43;1.05;;;15.30;62.40;;;;;;5023934;28;20046;-77
2022/02/10 20:13:15;;;;;;;5.22;1.42;;;15.30;62.40;;;;;;5022500;28;20360;-76
2022/02/10 20:15:46;;;;;;;5.85;1.48;;;15.10;61.90;;;;;;4997010;28;20146;-73
2022/02/10 20:18:14;;;;;;;7.15;1.27;;;15.10;62.60;;;;;;5028074;28;20442;-71
2022/02/10 20:20:41;;;;;;;8.90;1.63;;;15.10;62.60;;;;;;5015995;28;20046;-72
2022/02/10 20:23:10;;;;;;;9.80;1.90;;;15.10;62.00;;;;;;5038803;28;20404;-71
2022/02/10 20:25:37;;;;;;;8.63;1.63;;;15.10;61.60;;;;;;5016803;28;20373;-72
2022/02/10 20:28:03;;;;;;;7.88;1.98;;;15.00;61.20;;;;;;5027954;28;20124;-72
2022/02/10 20:30:31;;;;;;;5.10;1.55;;;15.00;61.20;;;;;;5018804;28;20432;-72
2022/02/10 20:32:57;;;;;;;7.00;1.38;;;15.00;61.40;;;;;;5025421;28;20038;-72
2022/02/10 20:35:23;;;;;;;7.28;2.05;;;14.90;61.40;;;;;;5027033;28;20106;-72
2022/02/10 20:37:53;;;;;;;10.65;1.85;;;14.90;61.30;;;;;;5016713;28;20070;-72
2022/02/10 20:40:19;;;;;;;12.73;2.20;;;14.90;62.10;;;;;;5018817;28;20036;-73
2022/02/10 20:42:44;;;;;;;10.48;1.20;;;14.90;61.90;;;;;;5027866;28;20431;-72
2022/02/10 20:45:10;;;;;;;19.10;2.35;;;14.90;61.90;;;;;;5025633;28;20054;-72
2022/02/10 20:47:36;;;;;;;8.20;1.30;;;14.80;61.80;;;;;;5016396;28;20396;-74
2022/02/10 20:50:03;;;;;;;8.07;1.85;;;14.80;61.90;;;;;;5023517;28;20050;-73
2022/02/10 20:52:31;;;;;;;8.05;1.27;;;14.80;62.20;;;;;;5033767;28;20500;-73
2022/02/10 20:54:58;;;;;;;10.32;1.30;;;14.80;62.00;;;;;;5017587;28;20091;-73
2022/02/10 20:57:24;;;;;;;5.68;1.20;;;14.80;62.20;;;;;;5030395;28;20437;-73
2022/02/10 20:59:49;;;;;;;13.98;1.92;;;14.80;62.30;;;;;;5021809;28;20048;-73
2022/02/10 21:02:18;;;;;;;13.50;1.88;;;14.90;61.70;;;;;;5022934;28;20066;-73
2022/02/10 21:04:53;;;;;;;9.02;1.27;;;14.90;60.80;;;;;;5028766;28;20037;-73
2022/02/10 21:07:31;;;;;;;9.95;2.25;;;14.90;59.90;;;;;;5017712;28;20034;-72
2022/02/10 21:10:01;;;;;;;9.32;2.28;;;14.90;59.10;;;;;;5025934;28;20354;-73
2022/02/10 21:12:34;;;;;;;10.95;2.42;;;14.90;58.40;;;;;;5026737;28;20349;-72
2022/02/10 21:15:02;;;;;;;12.10;2.37;;;14.90;57.90;;;;;;5017729;28;20042;-73
2022/02/10 21:17:29;;;;;;;13.55;2.35;;;14.90;57.30;;;;;;5029288;28;20313;-73
2022/02/10 21:20:00;;;;;;;10.35;1.92;;;14.80;56.80;;;;;;5022227;28;20102;-73
2022/02/10 21:22:26;;;;;;;16.88;2.90;;;14.90;56.30;;;;;;5021714;28;20170;-72
2022/02/10 21:25:08;;;;;;;12.38;1.95;;;14.80;55.80;;;;;;5023223;28;20046;-72
2022/02/10 21:27:42;;;;;;;12.60;2.17;;;14.80;55.50;;;;;;5034360;28;20084;-72
2022/02/10 21:30:09;;;;;;;11.95;2.13;;;14.80;55.60;;;;;;5029936;28;20052;-73
2022/02/10 21:32:47;;;;;;;9.07;2.40;;;14.50;55.30;;;;;;5024289;28;20125;-72
2022/02/10 21:35:29;;;;;;;11.35;2.22;;;14.20;55.10;;;;;;5023148;28;20037;-73
2022/02/10 21:38:16;;;;;;;7.18;1.77;;;14.00;55.70;;;;;;5026567;28;20049;-72
2022/02/10 22:10:33;;;;;;;5.97;1.70;;;12.50;57.80;;;;;;5033316;28;20050;-72
2022/02/10 22:21:05;;;;;;;7.30;1.80;;;12.40;57.80;;;;;;5033572;28;20090;-72
2022/02/10 22:23:34;;;;;;;8.10;1.67;;;12.30;57.60;;;;;;5032782;28;20085;-72
2022/02/10 22:26:04;;;;;;;7.82;2.08;;;12.30;57.30;;;;;;5032776;28;20106;-72
2022/02/10 22:28:52;;;;;;;7.25;2.25;;;12.20;56.90;;;;;;5033495;28;20510;-72
2022/02/10 22:36:23;;;;;;;10.23;1.77;;;12.00;57.80;;;;;;5017544;28;20051;-72
2022/02/10 22:38:52;;;;;;;8.88;1.73;;;12.00;58.30;;;;;;5033219;28;20446;-72
2022/02/10 22:41:18;;;;;;;6.20;1.17;;;12.00;57.90;;;;;;5033085;28;20065;-73
2022/02/10 22:43:46;;;;;;;6.32;1.50;;;12.10;58.60;;;;;;5032986;28;20049;-72
2022/02/10 22:46:14;;;;;;;6.60;1.52;;;12.10;58.30;;;;;;5033465;28;20041;-72
2022/02/10 22:48:41;;;;;;;6.50;1.40;;;12.10;58.10;;;;;;5032940;28;20041;-72
2022/02/10 22:51:08;;;;;;;7.40;1.42;;;12.10;58.60;;;;;;5032248;28;20046;-72
2022/02/10 22:53:33;;;;;;;6.53;1.95;;;12.10;58.60;;;;;;5031930;28;20049;-72
2022/02/10 22:55:59;;;;;;;5.90;1.65;;;12.10;58.40;;;;;;5032602;28;20052;-72
2022/02/10 22:58:25;;;;;;;8.10;1.70;;;12.10;58.80;;;;;;5032598;28;20101;-72
2022/02/10 23:00:51;;;;;;;8.13;2.20;;;12.00;58.50;;;;;;5029783;28;20068;-72
2022/02/10 23:03:19;;;;;;;6.20;1.38;;;12.00;58.70;;;;;;5032877;28;20137;-72
2022/02/10 23:05:46;;;;;;;5.70;1.60;;;12.00;58.90;;;;;;5032745;28;20390;-72
2022/02/10 23:08:12;;;;;;;7.47;1.60;;;11.90;59.00;;;;;;5032438;28;20493;-72
2022/02/10 23:13:05;;;;;;;6.30;1.52;;;11.90;59.20;;;;;;5032441;28;20429;-72
2022/02/10 23:15:36;;;;;;;10.10;2.30;;;11.90;59.20;;;;;;5032701;28;20061;-72
2022/02/10 23:18:18;;;;;;;8.13;2.13;;;11.90;58.60;;;;;;5032156;28;20048;-72
2022/02/10 23:20:45;;;;;;;6.38;1.48;;;11.80;59.00;;;;;;5032483;28;20088;-72
2022/02/10 23:23:13;;;;;;;5.47;1.58;;;11.90;59.00;;;;;;5032621;28;20041;-72
2022/02/10 23:25:40;;;;;;;6.25;1.83;;;11.80;59.20;;;;;;5029329;28;20042;-72
2022/02/10 23:28:09;;;;;;;8.75;1.83;;;11.80;58.90;;;;;;5032636;28;20375;-72
2022/02/10 23:30:35;;;;;;;10.77;2.55;;;11.80;58.60;;;;;;5032528;28;20063;-72
2022/02/10 23:33:16;;;;;;;8.82;2.22;;;11.70;59.40;;;;;;5032605;28;20046;-72
2022/02/10 23:39:16;;;;;;;6.68;1.70;;;11.70;59.00;;;;;;5034060;28;20113;-73
2022/02/10 23:44:00;;;;;;;8.57;2.00;;;11.60;58.70;;;;;;5031963;28;20050;-72
2022/02/10 23:46:27;;;;;;;8.55;1.88;;;11.60;58.90;;;;;;5031643;28;20338;-72
2022/02/10 23:48:54;;;;;;;9.82;2.25;;;11.60;58.90;;;;;;5032217;28;20033;-72
2022/02/10 23:51:24;;;;;;;10.70;2.25;;;11.60;59.30;;;;;;5032232;28;20037;-72
2022/02/10 23:53:50;;;;;;;11.13;2.42;;;11.50;58.90;;;;;;5031720;28;20057;-72
2022/02/10 23:56:18;;;;;;;8.20;1.92;;;11.50;59.00;;;;;;5032362;28;20053;-72
